Alabaster, Alabama
Current Conditions -  °F | °C
As of 11:53 AM on Saturday 25 Oct 2014 (Local Time) from KEET Reporting Station
Clear Clear  
Wind Chill: 70°   Ceiling: Unl
Heat Index: 70°   Visibility: 10mi
Dew Point: 53°   Wind: 6mph
Humidity: 55%   Direction: 300°WNW
Pressure: 30.11"   Gusts: NA
Location:  33.25°N, 86.82°W
Report Text: KEET 251653Z AUTO 30005KT 10SM CLR 21/12 A3011 RMK AO2 SLP194 T02110117
Loading
Personal Weather Stations






























Interactive Weather Map
Tropical Storm Tracking
New forecast layout! Learn more

10-Day Weather Forecast

Advertisements
Track Severe Weather on mobile